Saint Albert, Canada
Current Conditions -  °F | °C
As of 9:00 AM on Sunday 25 Jan 2015 (Local Time) from CYXD Reporting Station
Clear Clear  
Wind Chill: 35°   Ceiling: Unl
Heat Index: 39°   Visibility: 9mi
Dew Point: 30°   Wind: 6mph
Humidity: 70%   Direction: 230°SW
Pressure: 29.64"   Gusts: NA
Location:  53.63°N, 113.63°W
Report Text: CYXD 251600Z AUTO 23005KT 9SM CLR 04/M01 A2964 RMK SLP060
Loading
Personal Weather Stations






























Interactive Weather Map New forecast layout! Learn more

10-Day Weather Forecast

Advertisements
Track Severe Weather on mobile